createdAt,value
2016-05-16T00:00:53.037Z,8.1
2016-05-16T00:01:53.087Z,8.2
2016-05-16T00:02:53.121Z,8.07
2016-05-16T00:03:53.123Z,8.11
2016-05-16T00:04:53.017Z,8.02
2016-05-16T00:05:53.222Z,8.03
2016-05-16T00:06:53.117Z,7.97
2016-05-16T00:07:53.259Z,8.04
2016-05-16T00:08:53.325Z,8.08
2016-05-16T00:09:53.374Z,8.11
2016-05-16T00:10:53.392Z,7.97
2016-05-16T00:11:53.410Z,8.07
2016-05-16T00:12:53.460Z,8.1
2016-05-16T00:13:53.526Z,7.99
2016-05-16T00:14:53.372Z,7.93
2016-05-16T00:15:53.422Z,8.02
2016-05-16T00:16:53.643Z,7.96
2016-05-16T00:17:53.442Z,7.93
2016-05-16T00:18:53.663Z,7.96
2016-05-16T00:19:53.572Z,7.97
2016-05-16T00:20:53.763Z,7.92
2016-05-16T00:21:53.766Z,7.97
2016-05-16T00:22:53.815Z,7.85
2016-05-16T00:23:53.849Z,7.93
2016-05-16T00:24:53.961Z,7.94
2016-05-16T00:25:53.902Z,7.92
2016-05-16T00:26:53.795Z,7.96
2016-05-16T00:27:54.001Z,7.92
2016-05-16T00:28:54.035Z,7.97
2016-05-16T00:29:54.068Z,7.94
2016-05-16T00:30:53.946Z,8
2016-05-16T00:31:53.979Z,7.97
2016-05-16T00:32:54.171Z,7.92
2016-05-16T00:33:54.048Z,7.94
2016-05-16T00:34:54.582Z,7.99
2016-05-16T00:35:54.131Z,7.89
2016-05-16T00:36:54.306Z,7.97
2016-05-16T00:37:54.340Z,7.97
2016-05-16T00:38:54.373Z,8
2016-05-16T00:39:54.455Z,7.97
2016-05-16T00:40:54.442Z,7.92
2016-05-16T00:41:54.492Z,7.93
2016-05-16T00:42:54.509Z,7.93
2016-05-16T00:43:54.591Z,8
2016-05-16T00:44:54.577Z,7.93
2016-05-16T00:45:54.471Z,7.94
2016-05-16T00:46:54.520Z,7.93
2016-05-16T00:47:54.555Z,7.94
2016-05-16T00:48:54.744Z,7.87
2016-05-16T00:49:54.935Z,7.87
2016-05-16T00:50:54.797Z,8
2016-05-16T00:51:54.705Z,7.92
2016-05-16T00:52:54.865Z,8
2016-05-16T00:53:54.914Z,7.97
2016-05-16T00:54:54.808Z,7.99
2016-05-16T00:55:54.982Z,7.96
2016-05-16T00:56:55.001Z,7.94
2016-05-16T00:57:55.082Z,8.04
2016-05-16T00:58:55.100Z,8.1
2016-05-16T00:59:55.133Z,8.07
2016-05-16T01:00:55.151Z,7.97
2016-05-16T01:01:55.201Z,8.03
2016-05-16T01:02:55.220Z,7.97
2016-05-16T01:03:55.270Z,7.93
2016-05-16T01:04:55.303Z,8.02
2016-05-16T01:05:55.368Z,8
2016-05-16T01:06:55.245Z,8.07
2016-05-16T01:07:55.249Z,8.07
2016-05-16T01:08:55.470Z,8.11
2016-05-16T01:09:55.520Z,7.99
2016-05-16T01:10:55.507Z,8.1
2016-05-16T01:11:55.384Z,8.02
2016-05-16T01:12:55.590Z,8.02
2016-05-16T01:13:55.640Z,8.11
2016-05-16T01:14:55.643Z,8.14
2016-05-16T01:15:55.692Z,8
2016-05-16T01:16:55.725Z,8.14
2016-05-16T01:17:55.775Z,8.08
2016-05-16T01:18:55.794Z,8.07
2016-05-16T01:19:55.828Z,8.07
2016-05-16T01:20:55.909Z,8.08
2016-05-16T01:21:55.896Z,8.02
2016-05-16T01:22:55.929Z,8
2016-05-16T01:23:55.980Z,8.02
2016-05-16T01:24:56.014Z,7.96
2016-05-16T01:25:55.891Z,7.96
2016-05-16T01:26:56.081Z,7.81
2016-05-16T01:27:55.803Z,7.97
2016-05-16T01:28:56.148Z,7.92
2016-05-16T01:29:56.183Z,7.82
2016-05-16T01:30:56.217Z,7.77
2016-05-16T01:31:56.095Z,7.85
2016-05-16T01:32:56.285Z,7.71
2016-05-16T01:33:56.319Z,7.67
2016-05-16T01:34:56.337Z,7.72
2016-05-16T01:35:56.292Z,7.72
2016-05-16T01:36:56.420Z,7.66
2016-05-16T01:37:56.471Z,7.77
2016-05-16T01:38:56.535Z,7.77
2016-05-16T01:39:56.522Z,7.6
2016-05-16T01:40:56.573Z,7.6
2016-05-16T01:41:56.637Z,7.69
2016-05-16T01:42:56.655Z,7.63
2016-05-16T01:43:56.690Z,7.63
2016-05-16T01:44:56.583Z,7.58
2016-05-16T01:45:56.772Z,7.66
2016-05-16T01:46:56.792Z,7.5
2016-05-16T01:47:56.825Z,7.49
2016-05-16T01:48:56.858Z,7.49
2016-05-16T01:49:56.940Z,7.45
2016-05-16T01:50:56.927Z,7.5
2016-05-16T01:51:56.991Z,7.49
2016-05-16T01:52:56.910Z,7.45
2016-05-16T01:53:57.172Z,7.47
2016-05-16T01:54:57.229Z,7.5
2016-05-16T01:55:57.133Z,7.59
2016-05-16T01:56:57.375Z,7.53
2016-05-16T01:57:57.407Z,7.5
2016-05-16T01:58:57.285Z,7.52
2016-05-16T01:59:57.333Z,7.52
2016-05-16T02:00:57.584Z,7.53
2016-05-16T02:01:57.594Z,7.52
2016-05-16T02:02:57.650Z,7.42
2016-05-16T02:03:57.689Z,7.5
2016-05-16T02:04:57.744Z,7.47
2016-05-16T02:05:57.752Z,7.42
2016-05-16T02:06:57.773Z,7.42
2016-05-16T02:07:57.840Z,7.37
2016-05-16T02:08:57.688Z,7.32
2016-05-16T02:09:57.740Z,7.34
2016-05-16T02:10:57.932Z,7.29
2016-05-16T02:11:57.983Z,7.29
2016-05-16T02:12:58.018Z,7.34
2016-05-16T02:13:58.036Z,7.32
2016-05-16T02:14:58.118Z,7.31
2016-05-16T02:15:58.137Z,7.24
2016-05-16T02:16:57.999Z,7.37
2016-05-16T02:17:58.189Z,7.35
2016-05-16T02:18:58.115Z,7.22
2016-05-16T02:19:58.742Z,7.24
2016-05-16T02:20:58.306Z,7.29
2016-05-16T02:21:58.310Z,7.26
2016-05-16T02:22:58.375Z,7.27
2016-05-16T02:23:58.392Z,7.29
2016-05-16T02:24:58.428Z,7.23
2016-05-16T02:25:58.351Z,7.22
2016-05-16T02:26:58.526Z,7.38
2016-05-16T02:27:58.528Z,7.24
2016-05-16T02:28:58.578Z,7.22
2016-05-16T02:29:58.597Z,7.17
2016-05-16T02:30:58.631Z,7.23
2016-05-16T02:31:58.664Z,7.23
2016-05-16T02:32:58.730Z,7.2
2016-05-16T02:33:58.747Z,7.15
2016-05-16T02:34:59.205Z,7.22
2016-05-16T02:35:58.816Z,7.13
2016-05-16T02:36:58.897Z,7.26
2016-05-16T02:37:58.712Z,7.22
2016-05-16T02:38:58.918Z,7.16
2016-05-16T02:39:58.858Z,7.23
2016-05-16T02:40:59.017Z,7.17
2016-05-16T02:41:58.879Z,7.24
2016-05-16T02:42:58.896Z,7.23
2016-05-16T02:43:59.103Z,7.22
2016-05-16T02:44:59.168Z,7.22
2016-05-16T02:45:59.171Z,7.24
2016-05-16T02:46:59.204Z,7.08
2016-05-16T02:47:59.099Z,7.15
2016-05-16T02:48:59.163Z,7.24
2016-05-16T02:49:59.166Z,7.15
2016-05-16T02:50:59.356Z,7.26
2016-05-16T02:51:59.218Z,7.2
2016-05-16T02:52:59.252Z,7.16
2016-05-16T02:53:59.443Z,7.13
2016-05-16T02:54:59.351Z,7.24
2016-05-16T02:55:59.370Z,7.17
2016-05-16T02:56:59.403Z,7.19
2016-05-16T02:57:59.562Z,7.22
2016-05-16T02:58:59.628Z,7.16
2016-05-16T02:59:59.662Z,7.16
2016-05-16T03:00:59.680Z,7.22
2016-05-16T03:01:59.745Z,7.22
2016-05-16T03:02:59.811Z,7.12
2016-05-16T03:03:59.797Z,7.24
2016-05-16T03:04:59.675Z,7.15
2016-05-16T03:05:59.865Z,7.17
2016-05-16T03:06:59.883Z,7.15
2016-05-16T03:07:59.777Z,7.16
2016-05-16T03:08:59.952Z,7.19
2016-05-16T03:10:00.048Z,7.15
2016-05-16T03:11:00.019Z,7.16
2016-05-16T03:12:00.069Z,7.27
2016-05-16T03:13:00.135Z,7.24
2016-05-16T03:14:00.152Z,7.23
2016-05-16T03:15:00.171Z,7.24
2016-05-16T03:16:00.220Z,7.24
2016-05-16T03:17:00.113Z,7.13
2016-05-16T03:18:00.273Z,7.24
2016-05-16T03:19:00.323Z,7.22
2016-05-16T03:20:00.434Z,7.26
2016-05-16T03:21:00.390Z,7.32
2016-05-16T03:22:00.252Z,7.31
2016-05-16T03:23:00.473Z,7.27
2016-05-16T03:24:00.523Z,7.29
2016-05-16T03:25:00.542Z,7.29
2016-05-16T03:26:00.560Z,7.29
2016-05-16T03:27:00.453Z,7.29
2016-05-16T03:28:00.628Z,7.31
2016-05-16T03:29:00.661Z,7.24
2016-05-16T03:30:00.711Z,7.22
2016-05-16T03:31:00.761Z,7.29
2016-05-16T03:32:00.795Z,7.27
2016-05-16T03:33:00.797Z,7.2
2016-05-16T03:34:00.847Z,7.2
2016-05-16T03:35:01.287Z,7.22
2016-05-16T03:36:01.352Z,7.19
2016-05-16T03:37:00.949Z,7.23
2016-05-16T03:38:00.967Z,7.17
2016-05-16T03:39:00.907Z,7.23
2016-05-16T03:40:01.066Z,7.22
2016-05-16T03:41:01.085Z,7.19
2016-05-16T03:42:00.977Z,7.22
2016-05-16T03:43:01.137Z,7.16
2016-05-16T03:44:01.186Z,7.16
2016-05-16T03:45:01.236Z,7.23
2016-05-16T03:46:01.113Z,7.2
2016-05-16T03:47:01.304Z,7.13
2016-05-16T03:48:01.322Z,7.08
2016-05-16T03:49:01.356Z,7.15
2016-05-16T03:50:01.452Z,7.2
2016-05-16T03:51:01.440Z,7.16
2016-05-16T03:52:01.457Z,7.17
2016-05-16T03:53:01.554Z,7.16
2016-05-16T03:54:01.370Z,7.23
2016-05-16T03:55:01.590Z,7.17
2016-05-16T03:56:01.453Z,7.2
2016-05-16T03:57:01.628Z,7.19
2016-05-16T03:58:01.678Z,7.16
2016-05-16T03:59:01.742Z,7.16
2016-05-16T04:00:01.761Z,7.26
2016-05-16T04:01:01.638Z,7.29
2016-05-16T04:02:01.813Z,7.15
2016-05-16T04:03:01.862Z,7.2
2016-05-16T04:04:01.740Z,7.2
2016-05-16T04:05:02.055Z,7.27
2016-05-16T04:06:01.964Z,7.24
2016-05-16T04:07:01.827Z,7.16
2016-05-16T04:08:02.048Z,7.24
2016-05-16T04:09:01.941Z,7.26
2016-05-16T04:10:02.085Z,7.19
2016-05-16T04:11:01.993Z,7.22
2016-05-16T04:12:02.230Z,7.24
2016-05-16T04:13:02.186Z,7.31
2016-05-16T04:14:02.235Z,7.31
2016-05-16T04:15:02.285Z,7.32
2016-05-16T04:16:02.366Z,7.32
2016-05-16T04:17:02.338Z,7.34
2016-05-16T04:18:02.371Z,7.31
2016-05-16T04:19:02.437Z,7.35
2016-05-16T04:20:02.548Z,7.37
2016-05-16T04:21:02.473Z,7.41
2016-05-16T04:22:02.523Z,7.45
2016-05-16T04:23:02.588Z,7.45
2016-05-16T04:24:02.622Z,7.53
2016-05-16T04:25:02.625Z,7.47
2016-05-16T04:26:02.674Z,7.52
2016-05-16T04:27:02.364Z,7.6
2016-05-16T04:28:02.726Z,7.66
2016-05-16T04:29:02.761Z,7.63
2016-05-16T04:30:02.842Z,7.6
2016-05-16T04:31:02.672Z,7.55
2016-05-16T04:32:02.878Z,7.62
2016-05-16T04:33:02.755Z,7.53
2016-05-16T04:34:02.945Z,7.56
2016-05-16T04:35:02.683Z,7.5
2016-05-16T04:36:02.998Z,7.56
2016-05-16T04:37:02.891Z,7.59
2016-05-16T04:38:03.081Z,7.58
2016-05-16T04:39:02.991Z,7.59
2016-05-16T04:40:02.994Z,7.59
2016-05-16T04:41:03.183Z,7.66
2016-05-16T04:42:03.249Z,7.59
2016-05-16T04:43:03.127Z,7.59
2016-05-16T04:44:03.301Z,7.67
2016-05-16T04:45:03.335Z,7.59
2016-05-16T04:46:03.509Z,7.62
2016-05-16T04:47:03.402Z,7.59
2016-05-16T04:48:03.421Z,7.75
2016-05-16T04:49:03.471Z,7.71
2016-05-16T04:50:03.520Z,7.72
2016-05-16T04:51:03.523Z,7.79
2016-05-16T04:52:03.259Z,7.78
2016-05-16T04:53:03.294Z,7.69
2016-05-16T04:54:03.671Z,7.74
2016-05-16T04:55:03.674Z,7.77
2016-05-16T04:56:03.708Z,7.74
2016-05-16T04:57:03.757Z,7.78
2016-05-16T04:58:03.776Z,7.79
2016-05-16T04:59:03.825Z,7.75
2016-05-16T05:00:03.859Z,7.78
2016-05-16T05:01:03.784Z,7.85
2016-05-16T05:02:03.771Z,7.77
2016-05-16T05:03:03.961Z,7.85
2016-05-16T05:04:04.026Z,7.89
2016-05-16T05:05:04.247Z,7.82
2016-05-16T05:06:04.438Z,7.78
2016-05-16T05:07:04.113Z,7.84
2016-05-16T05:08:04.162Z,7.82
2016-05-16T05:09:04.180Z,7.71
2016-05-16T05:10:04.199Z,7.81
2016-05-16T05:11:04.249Z,7.85
2016-05-16T05:12:04.126Z,7.89
2016-05-16T05:13:04.300Z,7.85
2016-05-16T05:14:04.350Z,7.89
2016-05-16T05:15:04.260Z,7.9
2016-05-16T05:16:04.294Z,7.93
2016-05-16T05:17:04.311Z,7.94
2016-05-16T05:18:04.485Z,7.89
2016-05-16T05:19:04.535Z,7.93
2016-05-16T05:20:04.257Z,7.92
2016-05-16T05:21:04.604Z,7.87
2016-05-16T05:22:04.637Z,7.93
2016-05-16T05:23:04.718Z,7.9
2016-05-16T05:24:04.720Z,7.96
2016-05-16T05:25:04.583Z,7.94
2016-05-16T05:26:04.773Z,7.99
2016-05-16T05:27:04.807Z,7.94
2016-05-16T05:28:04.856Z,8.08
2016-05-16T05:29:04.890Z,8.04
2016-05-16T05:30:04.956Z,8.11
2016-05-16T05:31:04.958Z,8.12
2016-05-16T05:32:04.976Z,8.2
2016-05-16T05:33:05.042Z,8.14
2016-05-16T05:34:05.061Z,8.15
2016-05-16T05:35:05.782Z,8.25
2016-05-16T05:36:04.972Z,8.25
2016-05-16T05:37:05.208Z,8.33
2016-05-16T05:38:05.228Z,8.28
2016-05-16T05:39:05.261Z,8.37
2016-05-16T05:40:05.123Z,8.36
2016-05-16T05:41:05.360Z,8.47
2016-05-16T05:42:05.363Z,8.5
2016-05-16T05:43:05.396Z,8.55
2016-05-16T05:44:05.431Z,8.54
2016-05-16T05:45:05.324Z,8.58
2016-05-16T05:46:05.343Z,8.63
2016-05-16T05:47:05.376Z,8.63
2016-05-16T05:48:05.411Z,8.63
2016-05-16T05:49:05.600Z,8.68
2016-05-16T05:50:05.666Z,8.71
2016-05-16T05:51:05.668Z,8.72
2016-05-16T05:52:05.765Z,8.78
2016-05-16T05:53:05.736Z,8.9
2016-05-16T05:54:05.630Z,8.96
2016-05-16T05:55:05.835Z,8.94
2016-05-16T05:56:05.916Z,9.1
2016-05-16T05:57:05.904Z,9.02
2016-05-16T05:58:05.937Z,9.06
2016-05-16T05:59:06.003Z,9.23
2016-05-16T06:00:05.880Z,9.21
2016-05-16T06:01:05.883Z,9.27
2016-05-16T06:02:06.089Z,9.16
2016-05-16T06:03:06.154Z,9.1
2016-05-16T06:04:06.047Z,9.18
2016-05-16T06:05:06.065Z,9.09
2016-05-16T06:06:06.272Z,9.05
2016-05-16T06:07:06.289Z,9.06
2016-05-16T06:08:06.292Z,9.13
2016-05-16T06:09:06.342Z,9.16
2016-05-16T06:10:06.375Z,9.18
2016-05-16T06:11:06.410Z,9.27
2016-05-16T06:12:06.443Z,9.3
2016-05-16T06:13:06.509Z,9.45
2016-05-16T06:14:06.371Z,9.42
2016-05-16T06:15:06.561Z,9.48
2016-05-16T06:16:06.594Z,9.56
2016-05-16T06:17:06.644Z,9.56
2016-05-16T06:18:06.662Z,9.53
2016-05-16T06:19:06.556Z,9.64
2016-05-16T06:20:07.731Z,9.61
2016-05-16T06:21:06.827Z,9.73
2016-05-16T06:22:06.815Z,9.7
2016-05-16T06:23:06.692Z,9.71
2016-05-16T06:24:06.913Z,9.73
2016-05-16T06:25:06.994Z,9.76
2016-05-16T06:26:06.965Z,9.76
2016-05-16T06:27:07.015Z,9.82
2016-05-16T06:28:08.643Z,9.91
2016-05-16T06:29:06.958Z,9.96
2016-05-16T06:30:07.101Z,9.96
2016-05-16T06:31:07.151Z,10.09
2016-05-16T06:32:07.028Z,10.07
2016-05-16T06:33:07.407Z,10.22
2016-05-16T06:34:07.205Z,10.28
2016-05-16T06:35:07.178Z,10.34
2016-05-16T06:36:07.384Z,10.4
2016-05-16T06:37:07.370Z,10.53
2016-05-16T06:38:07.404Z,10.56
2016-05-16T06:39:07.485Z,10.56
2016-05-16T06:40:07.488Z,10.68
2016-05-16T06:41:07.553Z,10.66
2016-05-16T06:42:07.556Z,10.74
2016-05-16T06:43:07.636Z,10.7
2016-05-16T06:44:07.655Z,10.68
2016-05-16T06:45:07.532Z,10.66
2016-05-16T06:46:07.722Z,10.62
2016-05-16T06:47:07.741Z,10.53
2016-05-16T06:48:07.806Z,10.52
2016-05-16T06:49:07.669Z,10.55
2016-05-16T06:50:07.577Z,10.56
2016-05-16T06:51:07.908Z,10.51
2016-05-16T06:52:07.942Z,10.47
2016-05-16T06:53:07.819Z,10.53
2016-05-16T06:54:08.041Z,10.44
2016-05-16T06:55:07.918Z,10.52
2016-05-16T06:56:08.109Z,10.51
2016-05-16T06:57:08.174Z,10.46
2016-05-16T06:58:08.177Z,10.51
2016-05-16T06:59:08.257Z,10.59
2016-05-16T07:00:08.151Z,10.68
2016-05-16T07:01:08.200Z,10.6
2016-05-16T07:02:08.359Z,10.68
2016-05-16T07:03:08.925Z,10.71
2016-05-16T07:04:08.395Z,10.86
2016-05-16T07:05:08.977Z,10.8
2016-05-16T07:06:08.464Z,10.81
2016-05-16T07:07:08.513Z,10.94
2016-05-16T07:08:08.439Z,10.91
2016-05-16T07:09:08.597Z,10.91
2016-05-16T07:10:08.647Z,10.89
2016-05-16T07:11:08.727Z,10.94
2016-05-16T07:12:08.558Z,11.02
2016-05-16T07:13:08.436Z,11.06
2016-05-16T07:14:08.798Z,11.16
2016-05-16T07:15:08.816Z,11.16
2016-05-16T07:16:08.772Z,11.13
2016-05-16T07:17:08.900Z,11.07
2016-05-16T07:18:09.386Z,11.09
2016-05-16T07:19:08.843Z,11.03
2016-05-16T07:20:09.313Z,11.06
2016-05-16T07:21:09.254Z,11.03
2016-05-16T07:22:08.991Z,11.02
2016-05-16T07:23:10.447Z,11.06
2016-05-16T07:24:09.169Z,10.94
2016-05-16T07:25:09.234Z,10.91
2016-05-16T07:26:09.315Z,10.99
2016-05-16T07:27:09.301Z,11.02
2016-05-16T07:28:09.351Z,10.95
2016-05-16T07:29:09.448Z,10.99
2016-05-16T07:30:09.434Z,11.02
2016-05-16T07:31:09.469Z,11.07
2016-05-16T07:32:09.596Z,11.1
2016-05-16T07:33:09.567Z,11.19
2016-05-16T07:34:09.648Z,11.31
2016-05-16T07:35:09.636Z,11.39
2016-05-16T07:36:09.732Z,11.41
2016-05-16T07:37:09.719Z,11.49
2016-05-16T07:38:09.769Z,11.52
2016-05-16T07:39:09.772Z,11.53
2016-05-16T07:40:09.806Z,11.65
2016-05-16T07:41:09.949Z,11.68
2016-05-16T07:42:09.872Z,11.68
2016-05-16T07:43:09.783Z,11.65
2016-05-16T07:44:10.144Z,11.7
2016-05-16T07:45:10.006Z,11.82
2016-05-16T07:46:10.165Z,11.82
2016-05-16T07:47:09.902Z,11.65
2016-05-16T07:48:10.810Z,11.54
2016-05-16T07:49:10.157Z,11.49
2016-05-16T07:50:10.067Z,11.34
2016-05-16T07:51:10.288Z,11.25
2016-05-16T07:52:10.244Z,11.25
2016-05-16T07:53:10.387Z,11.14
2016-05-16T07:54:10.515Z,11.1
2016-05-16T07:55:10.236Z,11.25
2016-05-16T07:56:10.520Z,11.32
2016-05-16T07:57:10.460Z,11.47
2016-05-16T07:58:10.525Z,11.54
2016-05-16T07:59:10.372Z,11.72
2016-05-16T08:00:10.579Z,11.86
2016-05-16T08:01:10.596Z,11.99
2016-05-16T08:02:10.662Z,12.11
2016-05-16T08:03:10.695Z,12.23
2016-05-16T08:04:10.573Z,12.3
2016-05-16T08:05:10.809Z,12.34
2016-05-16T08:06:10.828Z,12.45
2016-05-16T08:07:10.831Z,12.52
2016-05-16T08:08:10.896Z,12.42
2016-05-16T08:09:10.914Z,12.38
2016-05-16T08:10:10.948Z,12.31
2016-05-16T08:11:10.998Z,12.37
2016-05-16T08:12:10.891Z,12.41
2016-05-16T08:13:11.128Z,12.31
2016-05-16T08:14:10.958Z,12.31
2016-05-16T08:15:11.150Z,12.42
2016-05-16T08:16:11.059Z,12.52
2016-05-16T08:17:11.233Z,12.64
2016-05-16T08:18:11.283Z,12.77
2016-05-16T08:19:11.144Z,12.84
2016-05-16T08:20:11.350Z,12.96
2016-05-16T08:21:11.244Z,13.14
2016-05-16T08:22:11.433Z,13.21
2016-05-16T08:23:20.018Z,13.06
2016-05-16T08:24:11.533Z,13.03
2016-05-16T08:25:11.536Z,13.15
2016-05-16T08:26:11.585Z,13.15
2016-05-16T08:27:11.682Z,13.06
2016-05-16T08:28:11.668Z,12.99
2016-05-16T08:29:11.718Z,12.79
2016-05-16T08:30:11.736Z,12.64
2016-05-16T08:31:11.661Z,12.46
2016-05-16T08:32:11.821Z,12.31
2016-05-16T08:33:11.698Z,12.23
2016-05-16T08:34:11.888Z,12.01
2016-05-16T08:35:13.093Z,11.94
2016-05-16T08:36:12.487Z,11.93
2016-05-16T08:37:12.006Z,11.9
2016-05-16T08:38:11.914Z,11.93
2016-05-16T08:39:12.104Z,11.9
2016-05-16T08:40:12.139Z,11.93
2016-05-16T08:41:12.219Z,11.97
2016-05-16T08:42:12.269Z,12.15
2016-05-16T08:43:12.256Z,12.27
2016-05-16T08:44:12.305Z,12.45
2016-05-16T08:45:12.371Z,12.49
2016-05-16T08:46:12.388Z,12.71
2016-05-16T08:47:12.266Z,12.87
2016-05-16T08:48:12.286Z,13.11
2016-05-16T08:49:12.506Z,13.17
2016-05-16T08:50:12.572Z,13.29
2016-05-16T08:51:13.074Z,13.4
2016-05-16T08:52:12.483Z,13.51
2016-05-16T08:53:12.674Z,13.63
2016-05-16T08:54:12.707Z,13.56
2016-05-16T08:55:12.726Z,13.7
2016-05-16T08:56:12.822Z,13.67
2016-05-16T08:57:12.794Z,13.7
2016-05-16T08:58:12.859Z,13.79
2016-05-16T08:59:12.893Z,13.8
2016-05-16T09:00:12.942Z,13.91
2016-05-16T09:01:12.992Z,14.02
2016-05-16T09:02:12.837Z,14.04
2016-05-16T09:03:13.075Z,14.13
2016-05-16T09:04:13.110Z,14.09
2016-05-16T09:05:13.143Z,14.25
2016-05-16T09:06:13.209Z,14.16
2016-05-16T09:07:13.258Z,14.17
2016-05-16T09:08:13.104Z,14.16
2016-05-16T09:09:13.295Z,14.19
2016-05-16T09:10:13.328Z,14.14
2016-05-16T09:11:13.440Z,14.27
2016-05-16T09:12:13.428Z,14.29
2016-05-16T09:13:13.462Z,14.24
2016-05-16T09:14:13.573Z,14.28
2016-05-16T09:15:13.545Z,14.19
2016-05-16T09:16:13.578Z,14.25
2016-05-16T09:17:13.456Z,14.28
2016-05-16T09:18:13.662Z,14.21
2016-05-16T09:19:13.758Z,14.09
2016-05-16T09:20:13.747Z,14.12
2016-05-16T09:21:13.639Z,14.2
2016-05-16T09:22:13.924Z,14.35
2016-05-16T09:23:13.582Z,14.53
2016-05-16T09:24:13.913Z,14.57
2016-05-16T09:25:13.932Z,14.57
2016-05-16T09:26:14.044Z,14.5
2016-05-16T09:27:14.015Z,14.47
2016-05-16T09:28:14.080Z,14.5
2016-05-16T09:29:14.114Z,14.52
2016-05-16T09:30:14.226Z,14.64
2016-05-16T09:31:14.198Z,14.57
2016-05-16T09:32:14.075Z,14.56
2016-05-16T09:33:14.296Z,14.47
2016-05-16T09:34:14.206Z,14.38
2016-05-16T09:35:14.349Z,14.25
2016-05-16T09:36:14.915Z,14.17
2016-05-16T09:37:14.479Z,13.91
2016-05-16T09:38:14.482Z,13.76
2016-05-16T09:39:14.531Z,13.73
2016-05-16T09:40:14.550Z,13.84
2016-05-16T09:41:14.631Z,13.88
2016-05-16T09:42:14.664Z,14.06
2016-05-16T09:43:14.542Z,14.04
2016-05-16T09:44:14.748Z,14.17
2016-05-16T09:45:14.626Z,14.13
2016-05-16T09:46:14.800Z,14.09
2016-05-16T09:47:14.678Z,14.14
2016-05-16T09:48:14.727Z,14.02
2016-05-16T09:49:14.917Z,14.02
2016-05-16T09:50:14.811Z,14.04
2016-05-16T09:51:15.313Z,14.1
2016-05-16T09:52:15.098Z,14.12
2016-05-16T09:53:15.085Z,14.1
2016-05-16T09:54:15.135Z,14.2
2016-05-16T09:55:15.168Z,14.2
2016-05-16T09:56:15.218Z,14.28
2016-05-16T09:57:15.252Z,14.49
2016-05-16T09:58:15.302Z,14.62
2016-05-16T09:59:15.367Z,14.69
2016-05-16T10:00:15.385Z,14.84
2016-05-16T10:01:15.263Z,14.9
2016-05-16T10:02:15.468Z,15.05
2016-05-16T10:03:15.346Z,15.12
2016-05-16T10:04:15.395Z,15.19
2016-05-16T10:05:15.835Z,15.23
2016-05-16T10:06:15.713Z,15.28
2016-05-16T10:07:15.545Z,15.3
2016-05-16T10:08:15.704Z,15.39
2016-05-16T10:09:15.753Z,15.63
2016-05-16T10:10:15.787Z,15.92
2016-05-16T10:11:15.851Z,15.92
2016-05-16T10:12:15.714Z,16.03
2016-05-16T10:13:15.904Z,16
2016-05-16T10:14:16.157Z,16.06
2016-05-16T10:15:15.863Z,15.84
2016-05-16T10:16:16.053Z,15.6
2016-05-16T10:17:15.962Z,15.43
2016-05-16T10:18:22.733Z,15.35
2016-05-16T10:19:16.170Z,15.27
2016-05-16T10:20:16.235Z,15.27
2016-05-16T10:21:16.411Z,15.23
2016-05-16T10:22:16.272Z,15.19
2016-05-16T10:23:16.338Z,15.19
2016-05-16T10:24:16.434Z,15.09
2016-05-16T10:25:16.405Z,15.21
2016-05-16T10:26:16.471Z,15.33
2016-05-16T10:27:16.504Z,15.51
2016-05-16T10:28:16.585Z,15.72
2016-05-16T10:29:16.619Z,15.88
2016-05-16T10:30:16.482Z,15.99
2016-05-16T10:31:16.672Z,16.09
2016-05-16T10:32:16.565Z,16.23
2016-05-16T10:33:16.771Z,16.35
2016-05-16T10:34:16.804Z,16.42
2016-05-16T10:35:16.823Z,16.75
2016-05-16T10:36:16.731Z,16.88
2016-05-16T10:37:16.938Z,17.17
2016-05-16T10:38:16.815Z,17.73
2016-05-16T10:39:17.067Z,18.4
2016-05-16T10:40:16.899Z,19.18
2016-05-16T10:41:17.137Z,19.76
2016-05-16T10:42:17.217Z,20.51
2016-05-16T10:43:17.220Z,21.08
2016-05-16T10:44:17.112Z,21.63
2016-05-16T10:45:17.303Z,22.23
2016-05-16T10:46:17.399Z,22.77
2016-05-16T10:47:17.417Z,23.47
2016-05-16T10:48:17.311Z,24.31
2016-05-16T10:49:17.564Z,25.22
2016-05-16T10:50:17.550Z,25.17
2016-05-16T10:51:17.600Z,25.42
2016-05-16T10:52:17.665Z,25.82
2016-05-16T10:53:17.747Z,26.46
2016-05-16T10:54:17.592Z,26.65
2016-05-16T10:55:17.642Z,26.4
2016-05-16T10:56:17.770Z,25.82
2016-05-16T10:57:17.882Z,25.39
2016-05-16T10:58:17.987Z,25
2016-05-16T10:59:17.928Z,24.16
2016-05-16T11:00:18.196Z,22.89
2016-05-16T11:01:18.277Z,21.66
2016-05-16T11:02:18.466Z,20.87
2016-05-16T11:03:18.334Z,19.94
2016-05-16T11:04:18.495Z,19.29
2016-05-16T11:05:19.389Z,18.67
2016-05-16T11:06:18.784Z,18.12
2016-05-16T11:07:18.741Z,17.7
2016-05-16T11:08:18.735Z,17.18
2016-05-16T11:09:18.791Z,16.96
2016-05-16T11:10:18.908Z,16.77
2016-05-16T11:11:18.917Z,17.47
2016-05-16T11:12:18.926Z,18.72
2016-05-16T11:13:19.025Z,20.27
2016-05-16T11:14:19.029Z,21.71
2016-05-16T11:15:19.082Z,22.64
2016-05-16T11:16:19.148Z,23.22
2016-05-16T11:17:19.185Z,24.02
2016-05-16T11:18:19.220Z,24.94
2016-05-16T11:19:19.285Z,25.47
2016-05-16T11:20:19.353Z,25.87
2016-05-16T11:21:20.136Z,25.86
2016-05-16T11:22:19.421Z,25.61
2016-05-16T11:23:19.300Z,25.06
2016-05-16T11:24:19.552Z,24.23
2016-05-16T11:25:19.556Z,23.68
2016-05-16T11:26:19.511Z,22.89
2016-05-16T11:27:19.686Z,22.27
2016-05-16T11:28:19.580Z,21.85
2016-05-16T11:29:19.770Z,21.54
2016-05-16T11:30:19.850Z,21.04
2016-05-16T11:31:19.901Z,20.54
2016-05-16T11:32:19.919Z,20.61
2016-05-16T11:33:19.937Z,21.11
2016-05-16T11:34:20.003Z,22.22
2016-05-16T11:35:20.036Z,23.15
2016-05-16T11:36:20.102Z,24.05
2016-05-16T11:37:20.135Z,24.95
2016-05-16T11:38:20.216Z,25.83
2016-05-16T11:39:20.219Z,26.47
2016-05-16T11:40:20.300Z,27.11
2016-05-16T11:41:20.333Z,27.54
2016-05-16T11:42:20.399Z,28.03
2016-05-16T11:43:20.432Z,28.41
2016-05-16T11:44:20.498Z,28.48
2016-05-16T11:45:20.563Z,28.85
2016-05-16T11:46:20.596Z,29.25
2016-05-16T11:47:20.632Z,29.4
2016-05-16T11:48:20.712Z,29.86
2016-05-16T11:49:20.746Z,30.37
2016-05-16T11:50:20.827Z,30.52
2016-05-16T11:51:20.735Z,30.38
2016-05-16T11:52:20.801Z,30.37
2016-05-16T11:53:20.819Z,30.5
2016-05-16T11:54:21.009Z,30.71
2016-05-16T11:55:20.934Z,30.46
2016-05-16T11:56:21.171Z,30.3
2016-05-16T11:57:21.189Z,29.94
2016-05-16T11:58:21.333Z,29.38
2016-05-16T11:59:21.303Z,28.87
2016-05-16T12:00:21.354Z,28.4
2016-05-16T12:01:21.434Z,27.92
2016-05-16T12:02:21.359Z,27.29
2016-05-16T12:03:21.503Z,26.43
2016-05-16T12:04:21.427Z,25.59
2016-05-16T12:05:21.664Z,24.71
2016-05-16T12:06:21.666Z,23.87
2016-05-16T12:07:21.732Z,23.23
2016-05-16T12:08:21.813Z,22.62
2016-05-16T12:09:21.831Z,22.41
2016-05-16T12:10:21.880Z,22.23
2016-05-16T12:11:21.899Z,22.17
2016-05-16T12:12:21.980Z,21.97
2016-05-16T12:13:21.857Z,21.88
2016-05-16T12:14:22.079Z,21.76
2016-05-16T12:15:22.144Z,21.79
2016-05-16T12:16:22.022Z,21.61
2016-05-16T12:17:22.196Z,21.16
2016-05-16T12:18:22.090Z,20.84
2016-05-16T12:19:22.326Z,20.47
2016-05-16T12:20:22.235Z,20.06
2016-05-16T12:21:22.237Z,19.86
2016-05-16T12:22:22.287Z,19.54
2016-05-16T12:23:22.510Z,19.35
2016-05-16T12:24:22.528Z,19.13
2016-05-16T12:25:22.515Z,19.08
2016-05-16T12:26:22.689Z,18.84
2016-05-16T12:27:22.723Z,18.82
2016-05-16T12:28:22.726Z,18.67
2016-05-16T12:29:22.744Z,18.62
2016-05-16T12:30:22.825Z,18.57
2016-05-16T12:31:22.562Z,18.36
2016-05-16T12:32:22.893Z,18.13
2016-05-16T12:33:22.598Z,18.13
2016-05-16T12:34:22.851Z,18.21
2016-05-16T12:35:23.041Z,18.07
2016-05-16T12:36:23.185Z,17.95
2016-05-16T12:37:22.921Z,17.87
2016-05-16T12:38:23.128Z,17.85
2016-05-16T12:39:23.194Z,17.69
2016-05-16T12:40:23.227Z,17.67
2016-05-16T12:41:23.277Z,17.44
2016-05-16T12:42:23.294Z,17.38
2016-05-16T12:43:23.391Z,17.44
2016-05-16T12:44:23.424Z,17.43
2016-05-16T12:45:23.443Z,17.36
2016-05-16T12:46:23.477Z,17.41
2016-05-16T12:47:23.558Z,17.48
2016-05-16T12:48:23.560Z,17.54
2016-05-16T12:49:23.641Z,17.67
2016-05-16T12:50:23.676Z,17.73
2016-05-16T12:51:23.553Z,17.89
2016-05-16T12:52:23.729Z,18.33
2016-05-16T12:53:23.792Z,18.73
2016-05-16T12:54:23.843Z,19.66
2016-05-16T12:55:23.877Z,20.76
2016-05-16T12:56:23.926Z,21.83
2016-05-16T12:57:23.850Z,22.75
2016-05-16T12:58:24.075Z,23.79
2016-05-16T12:59:24.078Z,24.71
2016-05-16T13:00:24.128Z,25.2
2016-05-16T13:01:23.831Z,25.44
2016-05-16T13:02:24.226Z,25.62
2016-05-16T13:03:24.275Z,26.04
2016-05-16T13:04:24.294Z,26.42
2016-05-16T13:05:24.375Z,26.72
2016-05-16T13:06:24.409Z,27.11
2016-05-16T13:07:24.458Z,27.43
2016-05-16T13:08:24.383Z,27.67
2016-05-16T13:09:24.573Z,27.92